sensor_id;sensor_type;location;lat;lon;timestamp;P1;durP1;ratioP1;P2;durP2;ratioP2
50128;SDS011;36026;45.478;9.224;2024-02-21T00:02:10;99.28;;;62.33;;
50128;SDS011;36026;45.478;9.224;2024-02-21T00:05:11;102.28;;;63.33;;
50128;SDS011;36026;45.478;9.224;2024-02-21T00:08:13;96.38;;;60.40;;
50128;SDS011;36026;45.478;9.224;2024-02-21T00:11:14;96.60;;;60.25;;
50128;SDS011;36026;45.478;9.224;2024-02-21T00:14:23;93.03;;;59.58;;
50128;SDS011;36026;45.478;9.224;2024-02-21T00:17:24;96.30;;;59.03;;
50128;SDS011;36026;45.478;9.224;2024-02-21T00:20:26;93.88;;;58.90;;
50128;SDS011;36026;45.478;9.224;2024-02-21T00:23:27;96.03;;;59.70;;
50128;SDS011;36026;45.478;9.224;2024-02-21T00:26:29;97.07;;;60.67;;
50128;SDS011;36026;45.478;9.224;2024-02-21T00:29:32;97.75;;;58.53;;
50128;SDS011;36026;45.478;9.224;2024-02-21T00:32:34;93.70;;;57.47;;
50128;SDS011;36026;45.478;9.224;2024-02-21T00:35:36;91.78;;;57.00;;
50128;SDS011;36026;45.478;9.224;2024-02-21T00:38:37;92.50;;;56.42;;
50128;SDS011;36026;45.478;9.224;2024-02-21T00:41:38;92.37;;;57.33;;
50128;SDS011;36026;45.478;9.224;2024-02-21T00:44:41;90.47;;;57.08;;
50128;SDS011;36026;45.478;9.224;2024-02-21T00:47:43;87.38;;;55.95;;
50128;SDS011;36026;45.478;9.224;2024-02-21T00:50:44;86.28;;;55.97;;
50128;SDS011;36026;45.478;9.224;2024-02-21T00:53:45;86.13;;;55.03;;
50128;SDS011;36026;45.478;9.224;2024-02-21T00:56:47;87.50;;;55.20;;
50128;SDS011;36026;45.478;9.224;2024-02-21T00:59:50;87.60;;;54.53;;
50128;SDS011;36026;45.478;9.224;2024-02-21T01:02:51;86.47;;;53.97;;
50128;SDS011;36026;45.478;9.224;2024-02-21T01:05:52;85.88;;;54.28;;
50128;SDS011;36026;45.478;9.224;2024-02-21T01:08:54;85.78;;;53.25;;
50128;SDS011;36026;45.478;9.224;2024-02-21T01:11:55;87.00;;;53.80;;
50128;SDS011;36026;45.478;9.224;2024-02-21T01:14:58;89.37;;;55.27;;
50128;SDS011;36026;45.478;9.224;2024-02-21T01:18:00;88.23;;;54.40;;
50128;SDS011;36026;45.478;9.224;2024-02-21T01:21:01;85.93;;;53.42;;
50128;SDS011;36026;45.478;9.224;2024-02-21T01:24:03;86.45;;;54.03;;
50128;SDS011;36026;45.478;9.224;2024-02-21T01:27:04;85.50;;;54.17;;
50128;SDS011;36026;45.478;9.224;2024-02-21T01:30:08;89.53;;;54.55;;
50128;SDS011;36026;45.478;9.224;2024-02-21T01:33:10;87.80;;;55.03;;
50128;SDS011;36026;45.478;9.224;2024-02-21T01:36:12;91.83;;;54.67;;
50128;SDS011;36026;45.478;9.224;2024-02-21T01:39:13;81.90;;;52.17;;
50128;SDS011;36026;45.478;9.224;2024-02-21T01:42:15;82.95;;;51.15;;
50128;SDS011;36026;45.478;9.224;2024-02-21T01:45:17;80.57;;;50.85;;
50128;SDS011;36026;45.478;9.224;2024-02-21T01:48:19;81.40;;;49.53;;
50128;SDS011;36026;45.478;9.224;2024-02-21T01:51:21;79.78;;;50.45;;
50128;SDS011;36026;45.478;9.224;2024-02-21T01:54:22;78.22;;;47.38;;
50128;SDS011;36026;45.478;9.224;2024-02-21T01:57:24;75.70;;;47.25;;
50128;SDS011;36026;45.478;9.224;2024-02-21T02:00:27;75.03;;;46.72;;
50128;SDS011;36026;45.478;9.224;2024-02-21T02:03:29;73.03;;;44.15;;
50128;SDS011;36026;45.478;9.224;2024-02-21T02:06:31;72.17;;;45.17;;
50128;SDS011;36026;45.478;9.224;2024-02-21T02:09:32;70.27;;;43.50;;
50128;SDS011;36026;45.478;9.224;2024-02-21T02:12:34;69.78;;;43.30;;
50128;SDS011;36026;45.478;9.224;2024-02-21T02:15:40;70.65;;;43.50;;
50128;SDS011;36026;45.478;9.224;2024-02-21T02:18:42;69.32;;;42.25;;
50128;SDS011;36026;45.478;9.224;2024-02-21T02:21:45;68.63;;;42.13;;
50128;SDS011;36026;45.478;9.224;2024-02-21T02:24:48;67.85;;;41.55;;
50128;SDS011;36026;45.478;9.224;2024-02-21T02:27:50;69.05;;;42.13;;
50128;SDS011;36026;45.478;9.224;2024-02-21T02:30:52;69.17;;;43.00;;
50128;SDS011;36026;45.478;9.224;2024-02-21T02:33:54;70.93;;;42.63;;
50128;SDS011;36026;45.478;9.224;2024-02-21T02:36:55;68.03;;;42.88;;
50128;SDS011;36026;45.478;9.224;2024-02-21T02:39:58;69.53;;;42.38;;
50128;SDS011;36026;45.478;9.224;2024-02-21T02:42:59;67.80;;;41.67;;
50128;SDS011;36026;45.478;9.224;2024-02-21T02:46:01;68.47;;;41.88;;
50128;SDS011;36026;45.478;9.224;2024-02-21T02:49:02;69.65;;;42.63;;
50128;SDS011;36026;45.478;9.224;2024-02-21T02:52:04;71.87;;;43.10;;
50128;SDS011;36026;45.478;9.224;2024-02-21T02:55:07;68.87;;;42.53;;
50128;SDS011;36026;45.478;9.224;2024-02-21T02:58:08;65.15;;;40.92;;
50128;SDS011;36026;45.478;9.224;2024-02-21T03:01:10;69.50;;;42.20;;
50128;SDS011;36026;45.478;9.224;2024-02-21T03:04:11;67.17;;;40.77;;
50128;SDS011;36026;45.478;9.224;2024-02-21T03:07:13;64.43;;;40.03;;
50128;SDS011;36026;45.478;9.224;2024-02-21T03:10:16;66.78;;;39.95;;
50128;SDS011;36026;45.478;9.224;2024-02-21T03:13:17;63.47;;;37.67;;
50128;SDS011;36026;45.478;9.224;2024-02-21T03:16:19;59.63;;;36.97;;
50128;SDS011;36026;45.478;9.224;2024-02-21T03:19:20;56.83;;;35.25;;
50128;SDS011;36026;45.478;9.224;2024-02-21T03:22:22;56.50;;;34.30;;
50128;SDS011;36026;45.478;9.224;2024-02-21T03:25:25;55.35;;;33.22;;
50128;SDS011;36026;45.478;9.224;2024-02-21T03:28:26;50.72;;;31.27;;
50128;SDS011;36026;45.478;9.224;2024-02-21T03:31:28;49.20;;;29.05;;
50128;SDS011;36026;45.478;9.224;2024-02-21T03:34:29;48.42;;;29.05;;
50128;SDS011;36026;45.478;9.224;2024-02-21T03:37:31;46.83;;;29.02;;
50128;SDS011;36026;45.478;9.224;2024-02-21T03:40:34;44.85;;;27.70;;
50128;SDS011;36026;45.478;9.224;2024-02-21T03:43:37;43.70;;;26.73;;
50128;SDS011;36026;45.478;9.224;2024-02-21T03:46:38;46.10;;;26.73;;
50128;SDS011;36026;45.478;9.224;2024-02-21T03:49:40;41.25;;;25.80;;
50128;SDS011;36026;45.478;9.224;2024-02-21T03:52:41;43.53;;;26.80;;
50128;SDS011;36026;45.478;9.224;2024-02-21T03:55:44;43.30;;;26.60;;
50128;SDS011;36026;45.478;9.224;2024-02-21T03:58:46;42.58;;;25.20;;
50128;SDS011;36026;45.478;9.224;2024-02-21T04:01:48;40.20;;;24.35;;
50128;SDS011;36026;45.478;9.224;2024-02-21T04:04:52;39.55;;;24.45;;
50128;SDS011;36026;45.478;9.224;2024-02-21T04:07:53;43.47;;;25.02;;
50128;SDS011;36026;45.478;9.224;2024-02-21T04:10:56;40.78;;;25.35;;
50128;SDS011;36026;45.478;9.224;2024-02-21T04:13:58;40.50;;;24.70;;
50128;SDS011;36026;45.478;9.224;2024-02-21T04:16:59;42.97;;;25.05;;
50128;SDS011;36026;45.478;9.224;2024-02-21T04:20:04;40.90;;;24.90;;
50128;SDS011;36026;45.478;9.224;2024-02-21T04:23:07;41.05;;;24.30;;
50128;SDS011;36026;45.478;9.224;2024-02-21T04:26:10;44.53;;;26.60;;
50128;SDS011;36026;45.478;9.224;2024-02-21T04:29:12;39.60;;;25.65;;
50128;SDS011;36026;45.478;9.224;2024-02-21T04:32:13;39.10;;;24.70;;
50128;SDS011;36026;45.478;9.224;2024-02-21T04:35:15;43.17;;;25.85;;
50128;SDS011;36026;45.478;9.224;2024-02-21T04:38:16;39.65;;;24.20;;
50128;SDS011;36026;45.478;9.224;2024-02-21T04:41:19;40.53;;;24.65;;
50128;SDS011;36026;45.478;9.224;2024-02-21T04:44:21;36.28;;;22.98;;
50128;SDS011;36026;45.478;9.224;2024-02-21T04:47:22;37.80;;;23.10;;
50128;SDS011;36026;45.478;9.224;2024-02-21T04:50:25;36.83;;;22.73;;
50128;SDS011;36026;45.478;9.224;2024-02-21T04:53:27;40.08;;;24.25;;
50128;SDS011;36026;45.478;9.224;2024-02-21T04:56:30;39.63;;;24.23;;
50128;SDS011;36026;45.478;9.224;2024-02-21T04:59:31;38.60;;;23.20;;
50128;SDS011;36026;45.478;9.224;2024-02-21T05:02:35;38.97;;;23.27;;
50128;SDS011;36026;45.478;9.224;2024-02-21T05:05:36;38.45;;;23.75;;
50128;SDS011;36026;45.478;9.224;2024-02-21T05:08:38;36.80;;;22.73;;
50128;SDS011;36026;45.478;9.224;2024-02-21T05:11:40;41.35;;;22.55;;
50128;SDS011;36026;45.478;9.224;2024-02-21T05:14:42;37.65;;;22.75;;
50128;SDS011;36026;45.478;9.224;2024-02-21T05:17:43;37.00;;;22.63;;
50128;SDS011;36026;45.478;9.224;2024-02-21T05:20:45;37.28;;;23.08;;
50128;SDS011;36026;45.478;9.224;2024-02-21T05:23:46;36.40;;;22.27;;
50128;SDS011;36026;45.478;9.224;2024-02-21T05:26:49;36.55;;;22.77;;
50128;SDS011;36026;45.478;9.224;2024-02-21T05:29:50;37.87;;;22.63;;
50128;SDS011;36026;45.478;9.224;2024-02-21T05:32:52;38.85;;;22.58;;
50128;SDS011;36026;45.478;9.224;2024-02-21T05:35:53;35.15;;;21.90;;
50128;SDS011;36026;45.478;9.224;2024-02-21T05:38:55;38.78;;;22.80;;
50128;SDS011;36026;45.478;9.224;2024-02-21T05:41:59;38.45;;;22.30;;
50128;SDS011;36026;45.478;9.224;2024-02-21T05:45:00;39.08;;;23.08;;
50128;SDS011;36026;45.478;9.224;2024-02-21T05:48:02;35.42;;;21.90;;
50128;SDS011;36026;45.478;9.224;2024-02-21T05:51:04;31.60;;;19.10;;
50128;SDS011;36026;45.478;9.224;2024-02-21T05:54:05;26.50;;;16.38;;
50128;SDS011;36026;45.478;9.224;2024-02-21T05:57:09;24.03;;;15.13;;
50128;SDS011;36026;45.478;9.224;2024-02-21T06:00:10;25.77;;;15.18;;
50128;SDS011;36026;45.478;9.224;2024-02-21T06:03:12;22.90;;;14.13;;
50128;SDS011;36026;45.478;9.224;2024-02-21T06:06:13;25.13;;;14.27;;
50128;SDS011;36026;45.478;9.224;2024-02-21T06:09:15;22.17;;;13.15;;
50128;SDS011;36026;45.478;9.224;2024-02-21T06:12:18;21.13;;;12.73;;
50128;SDS011;36026;45.478;9.224;2024-02-21T06:15:19;20.23;;;11.85;;
50128;SDS011;36026;45.478;9.224;2024-02-21T06:18:21;21.60;;;12.63;;
50128;SDS011;36026;45.478;9.224;2024-02-21T06:21:22;21.70;;;12.45;;
50128;SDS011;36026;45.478;9.224;2024-02-21T06:24:24;22.88;;;12.77;;
50128;SDS011;36026;45.478;9.224;2024-02-21T06:27:26;21.77;;;12.88;;
50128;SDS011;36026;45.478;9.224;2024-02-21T06:30:28;23.40;;;13.50;;
50128;SDS011;36026;45.478;9.224;2024-02-21T06:33:29;22.85;;;13.35;;
50128;SDS011;36026;45.478;9.224;2024-02-21T06:36:31;22.65;;;13.57;;
50128;SDS011;36026;45.478;9.224;2024-02-21T06:39:32;23.40;;;13.80;;
50128;SDS011;36026;45.478;9.224;2024-02-21T06:42:35;22.80;;;12.88;;
50128;SDS011;36026;45.478;9.224;2024-02-21T06:45:36;21.77;;;12.83;;
50128;SDS011;36026;45.478;9.224;2024-02-21T06:48:38;21.55;;;12.07;;
50128;SDS011;36026;45.478;9.224;2024-02-21T06:51:39;24.67;;;13.25;;
50128;SDS011;36026;45.478;9.224;2024-02-21T06:54:41;20.15;;;12.55;;
50128;SDS011;36026;45.478;9.224;2024-02-21T06:57:44;23.70;;;13.18;;
50128;SDS011;36026;45.478;9.224;2024-02-21T07:00:45;23.05;;;13.70;;
50128;SDS011;36026;45.478;9.224;2024-02-21T07:03:46;23.30;;;14.00;;
50128;SDS011;36026;45.478;9.224;2024-02-21T07:06:48;24.10;;;14.45;;
50128;SDS011;36026;45.478;9.224;2024-02-21T07:09:49;25.30;;;14.77;;
50128;SDS011;36026;45.478;9.224;2024-02-21T07:12:53;33.25;;;17.60;;
50128;SDS011;36026;45.478;9.224;2024-02-21T07:15:54;28.25;;;17.40;;
50128;SDS011;36026;45.478;9.224;2024-02-21T07:18:55;28.97;;;16.97;;
50128;SDS011;36026;45.478;9.224;2024-02-21T07:21:58;30.15;;;17.80;;
50128;SDS011;36026;45.478;9.224;2024-02-21T07:24:59;28.90;;;17.85;;
50128;SDS011;36026;45.478;9.224;2024-02-21T07:28:02;31.08;;;18.08;;
50128;SDS011;36026;45.478;9.224;2024-02-21T07:31:04;29.33;;;17.67;;
50128;SDS011;36026;45.478;9.224;2024-02-21T07:34:05;28.10;;;17.30;;
50128;SDS011;36026;45.478;9.224;2024-02-21T07:37:07;29.42;;;17.65;;
50128;SDS011;36026;45.478;9.224;2024-02-21T07:40:12;30.27;;;18.57;;
50128;SDS011;36026;45.478;9.224;2024-02-21T07:43:15;31.05;;;18.25;;
50128;SDS011;36026;45.478;9.224;2024-02-21T07:46:16;29.15;;;18.70;;
50128;SDS011;36026;45.478;9.224;2024-02-21T07:49:18;28.25;;;17.90;;
50128;SDS011;36026;45.478;9.224;2024-02-21T07:52:19;29.33;;;18.27;;
50128;SDS011;36026;45.478;9.224;2024-02-21T07:55:20;28.10;;;17.37;;
50128;SDS011;36026;45.478;9.224;2024-02-21T07:58:23;26.63;;;17.42;;
50128;SDS011;36026;45.478;9.224;2024-02-21T08:01:25;24.45;;;15.57;;
50128;SDS011;36026;45.478;9.224;2024-02-21T08:04:26;25.75;;;16.02;;
50128;SDS011;36026;45.478;9.224;2024-02-21T08:07:28;23.75;;;14.13;;
50128;SDS011;36026;45.478;9.224;2024-02-21T08:10:31;24.10;;;14.25;;
50128;SDS011;36026;45.478;9.224;2024-02-21T08:13:33;21.77;;;13.60;;
50128;SDS011;36026;45.478;9.224;2024-02-21T08:16:35;23.15;;;14.27;;
50128;SDS011;36026;45.478;9.224;2024-02-21T08:19:36;21.02;;;13.75;;
50128;SDS011;36026;45.478;9.224;2024-02-21T08:22:38;24.73;;;14.80;;
50128;SDS011;36026;45.478;9.224;2024-02-21T08:25:39;22.60;;;14.18;;
50128;SDS011;36026;45.478;9.224;2024-02-21T08:28:42;23.35;;;14.43;;
50128;SDS011;36026;45.478;9.224;2024-02-21T08:31:43;22.30;;;14.48;;
50128;SDS011;36026;45.478;9.224;2024-02-21T08:34:45;23.00;;;14.95;;
50128;SDS011;36026;45.478;9.224;2024-02-21T08:37:46;26.15;;;14.93;;
50128;SDS011;36026;45.478;9.224;2024-02-21T08:40:48;24.25;;;14.55;;
50128;SDS011;36026;45.478;9.224;2024-02-21T08:43:51;24.33;;;14.73;;
50128;SDS011;36026;45.478;9.224;2024-02-21T08:46:53;25.35;;;14.95;;
50128;SDS011;36026;45.478;9.224;2024-02-21T08:49:55;23.47;;;15.10;;
50128;SDS011;36026;45.478;9.224;2024-02-21T08:52:56;23.77;;;14.82;;
50128;SDS011;36026;45.478;9.224;2024-02-21T08:55:58;25.23;;;15.00;;
50128;SDS011;36026;45.478;9.224;2024-02-21T08:59:01;22.10;;;14.00;;
50128;SDS011;36026;45.478;9.224;2024-02-21T09:02:04;22.23;;;13.32;;
50128;SDS011;36026;45.478;9.224;2024-02-21T09:05:07;19.40;;;12.77;;
50128;SDS011;36026;45.478;9.224;2024-02-21T09:08:08;17.98;;;11.38;;
50128;SDS011;36026;45.478;9.224;2024-02-21T09:11:10;21.02;;;12.63;;
50128;SDS011;36026;45.478;9.224;2024-02-21T09:14:13;21.30;;;12.35;;
50128;SDS011;36026;45.478;9.224;2024-02-21T09:17:14;20.20;;;12.80;;
50128;SDS011;36026;45.478;9.224;2024-02-21T09:20:17;21.85;;;13.55;;
50128;SDS011;36026;45.478;9.224;2024-02-21T09:23:18;21.77;;;13.82;;
50128;SDS011;36026;45.478;9.224;2024-02-21T09:26:20;21.33;;;14.38;;
50128;SDS011;36026;45.478;9.224;2024-02-21T09:29:23;23.60;;;14.25;;
50128;SDS011;36026;45.478;9.224;2024-02-21T09:32:24;22.00;;;14.68;;
50128;SDS011;36026;45.478;9.224;2024-02-21T09:35:26;23.23;;;14.18;;
50128;SDS011;36026;45.478;9.224;2024-02-21T09:38:28;21.75;;;13.57;;
50128;SDS011;36026;45.478;9.224;2024-02-21T09:41:29;22.07;;;13.70;;
50128;SDS011;36026;45.478;9.224;2024-02-21T09:44:33;20.70;;;14.73;;
50128;SDS011;36026;45.478;9.224;2024-02-21T09:47:39;19.07;;;13.63;;
50128;SDS011;36026;45.478;9.224;2024-02-21T09:50:43;20.90;;;14.30;;
50128;SDS011;36026;45.478;9.224;2024-02-21T09:53:46;21.57;;;13.97;;
50128;SDS011;36026;45.478;9.224;2024-02-21T09:56:48;21.48;;;14.38;;
50128;SDS011;36026;45.478;9.224;2024-02-21T09:59:51;21.80;;;14.05;;
50128;SDS011;36026;45.478;9.224;2024-02-21T10:02:53;21.23;;;14.80;;
50128;SDS011;36026;45.478;9.224;2024-02-21T10:05:55;23.85;;;16.63;;
50128;SDS011;36026;45.478;9.224;2024-02-21T10:08:58;22.83;;;14.90;;
50128;SDS011;36026;45.478;9.224;2024-02-21T10:12:07;21.15;;;15.25;;
50128;SDS011;36026;45.478;9.224;2024-02-21T10:15:10;21.52;;;15.23;;
50128;SDS011;36026;45.478;9.224;2024-02-21T10:18:11;22.73;;;15.27;;
50128;SDS011;36026;45.478;9.224;2024-02-21T10:21:13;25.50;;;17.73;;
50128;SDS011;36026;45.478;9.224;2024-02-21T10:24:14;25.50;;;17.77;;
50128;SDS011;36026;45.478;9.224;2024-02-21T10:27:16;26.35;;;17.95;;
50128;SDS011;36026;45.478;9.224;2024-02-21T10:30:19;27.90;;;18.40;;
50128;SDS011;36026;45.478;9.224;2024-02-21T10:33:21;33.00;;;21.73;;
50128;SDS011;36026;45.478;9.224;2024-02-21T10:36:24;31.00;;;22.00;;
50128;SDS011;36026;45.478;9.224;2024-02-21T10:39:26;31.80;;;22.35;;
50128;SDS011;36026;45.478;9.224;2024-02-21T10:42:28;30.77;;;22.03;;
50128;SDS011;36026;45.478;9.224;2024-02-21T10:45:34;29.90;;;21.25;;
50128;SDS011;36026;45.478;9.224;2024-02-21T10:48:39;31.77;;;22.80;;
50128;SDS011;36026;45.478;9.224;2024-02-21T10:51:43;28.95;;;20.83;;
50128;SDS011;36026;45.478;9.224;2024-02-21T10:54:45;31.37;;;22.73;;
50128;SDS011;36026;45.478;9.224;2024-02-21T10:57:47;31.63;;;21.63;;
50128;SDS011;36026;45.478;9.224;2024-02-21T11:00:50;33.08;;;23.50;;
50128;SDS011;36026;45.478;9.224;2024-02-21T11:03:53;31.95;;;23.40;;
50128;SDS011;36026;45.478;9.224;2024-02-21T11:06:54;32.80;;;23.63;;
50128;SDS011;36026;45.478;9.224;2024-02-21T11:09:56;33.70;;;23.57;;
50128;SDS011;36026;45.478;9.224;2024-02-21T11:13:05;34.55;;;24.00;;
50128;SDS011;36026;45.478;9.224;2024-02-21T11:16:09;31.02;;;22.33;;
50128;SDS011;36026;45.478;9.224;2024-02-21T11:19:18;28.38;;;20.63;;
50128;SDS011;36026;45.478;9.224;2024-02-21T11:22:20;30.70;;;22.02;;
50128;SDS011;36026;45.478;9.224;2024-02-21T11:25:22;31.43;;;22.33;;
50128;SDS011;36026;45.478;9.224;2024-02-21T11:28:25;29.45;;;22.02;;
50128;SDS011;36026;45.478;9.224;2024-02-21T11:31:37;28.27;;;20.35;;
50128;SDS011;36026;45.478;9.224;2024-02-21T11:34:39;27.67;;;20.67;;
50128;SDS011;36026;45.478;9.224;2024-02-21T11:37:41;32.93;;;22.83;;
50128;SDS011;36026;45.478;9.224;2024-02-21T11:40:46;30.27;;;22.27;;
50128;SDS011;36026;45.478;9.224;2024-02-21T11:43:48;33.30;;;24.35;;
50128;SDS011;36026;45.478;9.224;2024-02-21T11:46:52;38.55;;;27.40;;
50128;SDS011;36026;45.478;9.224;2024-02-21T11:49:53;33.78;;;24.92;;
50128;SDS011;36026;45.478;9.224;2024-02-21T11:52:55;33.93;;;25.27;;
50128;SDS011;36026;45.478;9.224;2024-02-21T11:55:56;33.38;;;25.13;;
50128;SDS011;36026;45.478;9.224;2024-02-21T11:58:58;39.45;;;28.95;;
50128;SDS011;36026;45.478;9.224;2024-02-21T12:02:01;38.33;;;28.30;;
50128;SDS011;36026;45.478;9.224;2024-02-21T12:05:04;32.97;;;24.83;;
50128;SDS011;36026;45.478;9.224;2024-02-21T12:08:06;31.02;;;23.02;;
50128;SDS011;36026;45.478;9.224;2024-02-21T12:11:15;38.30;;;28.65;;
50128;SDS011;36026;45.478;9.224;2024-02-21T12:14:17;38.40;;;29.63;;
50128;SDS011;36026;45.478;9.224;2024-02-21T12:17:19;35.05;;;27.38;;
50128;SDS011;36026;45.478;9.224;2024-02-21T12:20:21;33.08;;;25.50;;
50128;SDS011;36026;45.478;9.224;2024-02-21T12:23:23;33.28;;;25.90;;
50128;SDS011;36026;45.478;9.224;2024-02-21T12:26:27;37.47;;;28.90;;
50128;SDS011;36026;45.478;9.224;2024-02-21T12:29:29;38.13;;;29.60;;
50128;SDS011;36026;45.478;9.224;2024-02-21T12:32:32;36.33;;;27.75;;
50128;SDS011;36026;45.478;9.224;2024-02-21T12:35:34;44.90;;;34.00;;
50128;SDS011;36026;45.478;9.224;2024-02-21T12:38:35;48.95;;;36.78;;
50128;SDS011;36026;45.478;9.224;2024-02-21T12:41:37;72.80;;;50.25;;
50128;SDS011;36026;45.478;9.224;2024-02-21T12:44:40;84.93;;;55.85;;
50128;SDS011;36026;45.478;9.224;2024-02-21T12:47:43;89.47;;;55.57;;
50128;SDS011;36026;45.478;9.224;2024-02-21T12:50:48;63.47;;;42.57;;
50128;SDS011;36026;45.478;9.224;2024-02-21T12:53:49;66.63;;;44.73;;
50128;SDS011;36026;45.478;9.224;2024-02-21T12:56:51;55.08;;;37.92;;
50128;SDS011;36026;45.478;9.224;2024-02-21T12:59:52;72.63;;;47.80;;
50128;SDS011;36026;45.478;9.224;2024-02-21T13:02:56;58.15;;;40.22;;
50128;SDS011;36026;45.478;9.224;2024-02-21T13:05:57;49.40;;;36.47;;
50128;SDS011;36026;45.478;9.224;2024-02-21T13:08:59;38.10;;;28.40;;
50128;SDS011;36026;45.478;9.224;2024-02-21T13:12:04;36.83;;;28.02;;
50128;SDS011;36026;45.478;9.224;2024-02-21T13:15:06;33.15;;;25.20;;
50128;SDS011;36026;45.478;9.224;2024-02-21T13:18:09;30.87;;;24.17;;
50128;SDS011;36026;45.478;9.224;2024-02-21T13:21:10;34.30;;;26.48;;
50128;SDS011;36026;45.478;9.224;2024-02-21T13:24:12;34.17;;;26.10;;
50128;SDS011;36026;45.478;9.224;2024-02-21T13:27:13;35.58;;;28.52;;
50128;SDS011;36026;45.478;9.224;2024-02-21T13:30:15;31.55;;;25.10;;
50128;SDS011;36026;45.478;9.224;2024-02-21T13:33:19;29.65;;;24.05;;
50128;SDS011;36026;45.478;9.224;2024-02-21T13:36:20;30.65;;;23.40;;
50128;SDS011;36026;45.478;9.224;2024-02-21T13:39:22;30.58;;;24.30;;
50128;SDS011;36026;45.478;9.224;2024-02-21T13:42:23;34.25;;;27.52;;
50128;SDS011;36026;45.478;9.224;2024-02-21T13:45:27;34.75;;;27.30;;
50128;SDS011;36026;45.478;9.224;2024-02-21T13:48:30;40.13;;;30.50;;
50128;SDS011;36026;45.478;9.224;2024-02-21T13:51:33;33.03;;;26.10;;
50128;SDS011;36026;45.478;9.224;2024-02-21T13:54:36;34.05;;;26.67;;
50128;SDS011;36026;45.478;9.224;2024-02-21T13:57:37;38.00;;;28.98;;
50128;SDS011;36026;45.478;9.224;2024-02-21T14:00:39;42.83;;;32.97;;
50128;SDS011;36026;45.478;9.224;2024-02-21T14:03:41;35.95;;;28.13;;
50128;SDS011;36026;45.478;9.224;2024-02-21T14:06:43;34.60;;;26.27;;
50128;SDS011;36026;45.478;9.224;2024-02-21T14:09:44;34.33;;;27.77;;
50128;SDS011;36026;45.478;9.224;2024-02-21T14:12:46;45.90;;;33.57;;
50128;SDS011;36026;45.478;9.224;2024-02-21T14:15:48;40.10;;;29.83;;
50128;SDS011;36026;45.478;9.224;2024-02-21T14:18:51;37.38;;;28.65;;
50128;SDS011;36026;45.478;9.224;2024-02-21T14:21:54;42.53;;;32.20;;
50128;SDS011;36026;45.478;9.224;2024-02-21T14:24:56;42.50;;;33.10;;
50128;SDS011;36026;45.478;9.224;2024-02-21T14:27:58;41.42;;;31.05;;
50128;SDS011;36026;45.478;9.224;2024-02-21T14:31:00;40.97;;;30.85;;
50128;SDS011;36026;45.478;9.224;2024-02-21T14:34:04;37.42;;;28.55;;
50128;SDS011;36026;45.478;9.224;2024-02-21T14:37:07;33.95;;;26.20;;
50128;SDS011;36026;45.478;9.224;2024-02-21T14:40:09;35.42;;;27.15;;
50128;SDS011;36026;45.478;9.224;2024-02-21T14:43:11;38.25;;;29.08;;
50128;SDS011;36026;45.478;9.224;2024-02-21T14:46:12;34.72;;;26.48;;
50128;SDS011;36026;45.478;9.224;2024-02-21T14:49:15;30.93;;;24.37;;
50128;SDS011;36026;45.478;9.224;2024-02-21T14:52:17;32.97;;;25.30;;
50128;SDS011;36026;45.478;9.224;2024-02-21T14:55:21;38.70;;;29.45;;
50128;SDS011;36026;45.478;9.224;2024-02-21T14:58:23;36.30;;;28.10;;
50128;SDS011;36026;45.478;9.224;2024-02-21T15:01:24;35.67;;;26.70;;
50128;SDS011;36026;45.478;9.224;2024-02-21T15:04:27;36.63;;;27.13;;
50128;SDS011;36026;45.478;9.224;2024-02-21T15:07:28;37.78;;;28.77;;
50128;SDS011;36026;45.478;9.224;2024-02-21T15:10:30;40.00;;;28.98;;
50128;SDS011;36026;45.478;9.224;2024-02-21T15:13:31;45.22;;;33.75;;
50128;SDS011;36026;45.478;9.224;2024-02-21T15:16:33;45.03;;;33.55;;
50128;SDS011;36026;45.478;9.224;2024-02-21T15:19:36;40.75;;;30.00;;
50128;SDS011;36026;45.478;9.224;2024-02-21T15:22:39;90.80;;;62.63;;
50128;SDS011;36026;45.478;9.224;2024-02-21T15:25:40;127.10;;;84.13;;
50128;SDS011;36026;45.478;9.224;2024-02-21T15:28:43;130.48;;;81.80;;
50128;SDS011;36026;45.478;9.224;2024-02-21T15:31:44;115.25;;;72.18;;
50128;SDS011;36026;45.478;9.224;2024-02-21T15:34:48;92.60;;;58.57;;
50128;SDS011;36026;45.478;9.224;2024-02-21T15:37:49;77.45;;;50.33;;
50128;SDS011;36026;45.478;9.224;2024-02-21T15:40:50;93.47;;;59.53;;
50128;SDS011;36026;45.478;9.224;2024-02-21T15:43:52;83.55;;;55.72;;
50128;SDS011;36026;45.478;9.224;2024-02-21T15:46:54;62.50;;;42.97;;
50128;SDS011;36026;45.478;9.224;2024-02-21T15:49:58;51.42;;;36.53;;
50128;SDS011;36026;45.478;9.224;2024-02-21T15:53:00;42.63;;;31.63;;
50128;SDS011;36026;45.478;9.224;2024-02-21T15:56:02;41.78;;;31.40;;
50128;SDS011;36026;45.478;9.224;2024-02-21T15:59:04;40.07;;;29.73;;
50128;SDS011;36026;45.478;9.224;2024-02-21T16:02:05;42.83;;;32.15;;
50128;SDS011;36026;45.478;9.224;2024-02-21T16:05:08;49.72;;;34.67;;
50128;SDS011;36026;45.478;9.224;2024-02-21T16:08:10;46.05;;;32.92;;
50128;SDS011;36026;45.478;9.224;2024-02-21T16:11:13;45.03;;;32.60;;
50128;SDS011;36026;45.478;9.224;2024-02-21T16:14:15;46.00;;;32.83;;
50128;SDS011;36026;45.478;9.224;2024-02-21T16:17:18;45.88;;;32.55;;
50128;SDS011;36026;45.478;9.224;2024-02-21T16:20:21;49.30;;;34.33;;
50128;SDS011;36026;45.478;9.224;2024-02-21T16:23:22;46.67;;;33.88;;
50128;SDS011;36026;45.478;9.224;2024-02-21T16:26:24;47.70;;;33.93;;
50128;SDS011;36026;45.478;9.224;2024-02-21T16:29:26;46.88;;;33.50;;
50128;SDS011;36026;45.478;9.224;2024-02-21T16:32:27;51.07;;;35.80;;
50128;SDS011;36026;45.478;9.224;2024-02-21T16:35:30;51.80;;;36.00;;
50128;SDS011;36026;45.478;9.224;2024-02-21T16:38:32;52.25;;;35.78;;
50128;SDS011;36026;45.478;9.224;2024-02-21T16:41:33;51.63;;;35.55;;
50128;SDS011;36026;45.478;9.224;2024-02-21T16:44:35;52.35;;;36.17;;
50128;SDS011;36026;45.478;9.224;2024-02-21T16:47:37;55.00;;;35.70;;
50128;SDS011;36026;45.478;9.224;2024-02-21T16:50:39;56.97;;;37.10;;
50128;SDS011;36026;45.478;9.224;2024-02-21T16:53:41;53.10;;;35.60;;
50128;SDS011;36026;45.478;9.224;2024-02-21T16:56:42;54.25;;;35.42;;
50128;SDS011;36026;45.478;9.224;2024-02-21T16:59:44;53.50;;;35.47;;
50128;SDS011;36026;45.478;9.224;2024-02-21T17:02:46;51.55;;;35.03;;
50128;SDS011;36026;45.478;9.224;2024-02-21T17:05:50;56.50;;;36.92;;
50128;SDS011;36026;45.478;9.224;2024-02-21T17:08:51;58.65;;;39.47;;
50128;SDS011;36026;45.478;9.224;2024-02-21T17:11:54;58.00;;;37.92;;
50128;SDS011;36026;45.478;9.224;2024-02-21T17:14:56;58.42;;;37.90;;
50128;SDS011;36026;45.478;9.224;2024-02-21T17:17:57;62.00;;;40.77;;
50128;SDS011;36026;45.478;9.224;2024-02-21T17:21:01;56.03;;;37.85;;
50128;SDS011;36026;45.478;9.224;2024-02-21T17:24:03;59.22;;;38.67;;
50128;SDS011;36026;45.478;9.224;2024-02-21T17:27:04;59.15;;;38.50;;
50128;SDS011;36026;45.478;9.224;2024-02-21T17:30:06;59.28;;;39.13;;
50128;SDS011;36026;45.478;9.224;2024-02-21T17:33:08;63.03;;;41.30;;
50128;SDS011;36026;45.478;9.224;2024-02-21T17:36:11;62.37;;;39.50;;
50128;SDS011;36026;45.478;9.224;2024-02-21T17:39:13;63.83;;;41.03;;
50128;SDS011;36026;45.478;9.224;2024-02-21T17:42:15;63.25;;;41.67;;
50128;SDS011;36026;45.478;9.224;2024-02-21T17:45:16;59.78;;;39.08;;